Time;durP1;ratioP1;P1;durP2;ratioP2;P2;SDS_P1;SDS_P2;PMS_P1;PMS_P2;Temp;Humidity;BMP_temperature;BMP_pressure;BME280_temperature;BME280_humidity;BME280_pressure;Samples;Min_cycle;Max_cycle;Signal;HPM_P1;HPM_P2
2022/07/26 00:01:33;;;;;;;4.32;1.40;;;23.90;57.40;;;;;;4884692;29;20387;-69
2022/07/26 00:04:02;;;;;;;3.38;1.35;;;23.80;57.70;;;;;;4889110;29;20067;-68
2022/07/26 00:06:34;;;;;;;4.35;1.50;;;23.80;57.70;;;;;;4887623;29;20113;-68
2022/07/26 00:09:01;;;;;;;4.45;1.50;;;23.80;57.80;;;;;;4880890;29;20071;-69
2022/07/26 00:11:32;;;;;;;2.78;1.17;;;23.80;57.80;;;;;;4875912;29;20057;-70
2022/07/26 00:13:59;;;;;;;7.25;1.40;;;23.80;57.90;;;;;;4872515;29;20064;-69
2022/07/26 00:16:28;;;;;;;2.75;1.10;;;23.80;58.20;;;;;;4878056;29;20109;-70
2022/07/26 00:18:55;;;;;;;4.03;1.40;;;23.80;58.40;;;;;;4882485;29;20048;-72
2022/07/26 00:21:25;;;;;;;6.45;1.55;;;23.80;58.80;;;;;;4889418;29;20048;-69
2022/07/26 00:23:52;;;;;;;4.40;1.60;;;23.90;58.80;;;;;;4881885;29;20105;-71
2022/07/26 00:26:19;;;;;;;2.60;1.13;;;24.00;58.70;;;;;;4889340;29;20056;-71
2022/07/26 00:28:46;;;;;;;4.70;1.75;;;24.10;58.70;;;;;;4886815;29;20065;-72
2022/07/26 00:31:13;;;;;;;5.97;1.77;;;24.20;58.40;;;;;;4879785;29;20059;-72
2022/07/26 00:33:41;;;;;;;4.30;1.75;;;24.20;58.20;;;;;;4879911;29;20136;-73
2022/07/26 00:36:09;;;;;;;3.10;1.30;;;24.20;58.10;;;;;;4890192;29;20052;-73
2022/07/26 00:38:37;;;;;;;3.70;1.40;;;24.20;58.20;;;;;;4884399;29;20053;-70
2022/07/26 00:41:04;;;;;;;3.67;1.33;;;24.10;58.40;;;;;;4883313;29;20059;-72
2022/07/26 00:43:31;;;;;;;3.10;1.52;;;24.10;58.60;;;;;;4890342;29;20049;-73
2022/07/26 00:45:58;;;;;;;2.72;1.27;;;24.10;58.40;;;;;;4886465;29;20160;-74
2022/07/26 00:48:26;;;;;;;3.63;1.43;;;24.00;58.60;;;;;;4881540;29;20562;-73
2022/07/26 00:50:55;;;;;;;3.83;1.17;;;24.00;58.80;;;;;;4887115;29;20052;-73
2022/07/26 00:53:23;;;;;;;4.10;1.53;;;23.90;58.80;;;;;;4890073;29;20317;-72
2022/07/26 00:55:50;;;;;;;4.50;1.25;;;24.00;58.80;;;;;;4888969;29;20049;-74
2022/07/26 00:58:18;;;;;;;2.95;1.13;;;23.90;58.80;;;;;;4890155;29;20052;-70
2022/07/26 01:00:45;;;;;;;3.05;1.20;;;23.90;58.90;;;;;;4887467;29;20059;-74
2022/07/26 01:03:12;;;;;;;3.20;1.23;;;23.80;58.90;;;;;;4890156;29;20087;-69
2022/07/26 01:05:39;;;;;;;1.90;0.88;;;23.80;59.00;;;;;;4889651;29;20049;-73
2022/07/26 01:08:08;;;;;;;5.43;1.48;;;23.70;59.20;;;;;;4888946;29;20061;-71
2022/07/26 01:10:35;;;;;;;1.75;1.02;;;23.70;59.10;;;;;;4888884;29;20059;-70
2022/07/26 01:13:02;;;;;;;3.50;1.23;;;23.60;58.90;;;;;;4884932;29;20052;-68
2022/07/26 01:15:30;;;;;;;5.50;1.70;;;23.60;59.00;;;;;;4887012;29;20044;-71
2022/07/26 01:17:57;;;;;;;2.80;1.15;;;23.50;59.00;;;;;;4889244;29;20056;-71
2022/07/26 01:20:23;;;;;;;4.43;1.40;;;23.30;59.20;;;;;;4886196;29;20045;-70
2022/07/26 01:22:52;;;;;;;3.28;1.10;;;23.20;59.50;;;;;;4889641;29;20063;-70
2022/07/26 01:25:28;;;;;;;4.32;1.35;;;23.10;60.00;;;;;;4886227;29;20072;-71
2022/07/26 01:27:56;;;;;;;6.15;1.42;;;23.00;60.20;;;;;;4888914;29;20063;-70
2022/07/26 01:30:23;;;;;;;4.95;1.65;;;22.90;60.20;;;;;;4888131;29;20056;-70
2022/07/26 01:32:49;;;;;;;4.32;1.02;;;22.80;60.00;;;;;;4888198;29;20723;-72
2022/07/26 01:35:16;;;;;;;2.90;1.20;;;22.80;60.00;;;;;;4887452;29;20146;-69
2022/07/26 01:37:43;;;;;;;3.80;1.42;;;22.70;60.10;;;;;;4888675;29;20078;-70
2022/07/26 01:40:13;;;;;;;2.33;1.20;;;22.70;60.10;;;;;;4888119;29;20128;-70
2022/07/26 01:42:40;;;;;;;2.83;1.20;;;22.60;60.40;;;;;;4888460;29;20088;-72
2022/07/26 01:45:08;;;;;;;6.07;1.20;;;22.60;60.60;;;;;;4887854;29;20060;-68
2022/07/26 01:47:35;;;;;;;4.97;1.60;;;22.50;60.80;;;;;;4889377;29;20091;-71
2022/07/26 01:50:03;;;;;;;2.88;1.25;;;22.50;60.90;;;;;;4887156;29;20135;-69
2022/07/26 01:52:30;;;;;;;2.90;1.20;;;22.40;61.00;;;;;;4878932;29;20075;-71
2022/07/26 01:54:57;;;;;;;3.17;1.10;;;22.40;60.60;;;;;;4888720;29;20484;-71
2022/07/26 01:57:25;;;;;;;3.90;1.50;;;22.40;60.60;;;;;;4886049;29;20049;-69
2022/07/26 01:59:54;;;;;;;3.20;1.13;;;22.40;60.70;;;;;;4887568;29;20063;-71
2022/07/26 02:02:21;;;;;;;3.17;1.17;;;22.30;60.60;;;;;;4878181;29;20475;-72
2022/07/26 02:05:00;;;;;;;2.45;1.33;;;22.40;60.70;;;;;;4889545;29;20143;-72
2022/07/26 02:07:29;;;;;;;2.92;1.33;;;22.40;60.50;;;;;;4886033;29;20041;-69
2022/07/26 02:09:56;;;;;;;2.80;1.27;;;22.40;60.50;;;;;;4878323;29;20085;-71
2022/07/26 02:12:25;;;;;;;5.20;1.60;;;22.30;60.60;;;;;;4884306;29;20063;-73
2022/07/26 02:14:52;;;;;;;2.88;1.67;;;22.20;60.80;;;;;;4879638;29;20064;-72
2022/07/26 02:17:19;;;;;;;4.22;1.67;;;22.20;61.00;;;;;;4880167;29;20056;-71
2022/07/26 02:19:46;;;;;;;2.35;1.20;;;22.10;61.10;;;;;;4880126;29;20071;-70
2022/07/26 02:22:13;;;;;;;5.30;1.55;;;22.10;61.30;;;;;;4878930;29;20384;-69
2022/07/26 02:24:40;;;;;;;2.95;1.20;;;22.10;61.60;;;;;;4878901;29;20052;-73
2022/07/26 02:27:07;;;;;;;4.57;1.27;;;22.10;61.50;;;;;;4886024;29;20053;-71
2022/07/26 02:29:35;;;;;;;4.15;1.50;;;22.10;61.50;;;;;;4888490;29;20076;-70
2022/07/26 02:32:03;;;;;;;2.85;1.20;;;22.10;61.90;;;;;;4878645;29;20052;-69
2022/07/26 02:34:30;;;;;;;3.42;1.20;;;22.10;62.10;;;;;;4880228;29;20072;-72
2022/07/26 02:36:58;;;;;;;4.57;1.35;;;22.20;62.10;;;;;;4884929;29;20040;-71
2022/07/26 02:39:26;;;;;;;4.43;1.30;;;22.20;62.20;;;;;;4879711;29;20562;-71
2022/07/26 02:41:55;;;;;;;1.95;1.08;;;22.10;62.40;;;;;;4879022;29;20140;-71
2022/07/26 02:44:22;;;;;;;3.47;1.17;;;22.10;62.50;;;;;;4883760;29;20506;-69
2022/07/26 02:46:50;;;;;;;2.53;1.20;;;22.10;62.60;;;;;;4883196;29;20451;-70
2022/07/26 02:49:18;;;;;;;3.13;1.47;;;22.10;62.70;;;;;;4879246;29;20135;-71
2022/07/26 02:51:46;;;;;;;3.90;1.40;;;22.10;62.50;;;;;;4876534;29;20049;-70
2022/07/26 02:54:15;;;;;;;3.97;1.20;;;22.10;62.40;;;;;;4885285;29;20084;-70
2022/07/26 02:56:42;;;;;;;3.83;1.33;;;22.10;62.30;;;;;;4880338;29;20061;-71
2022/07/26 02:59:09;;;;;;;3.00;1.08;;;22.10;62.30;;;;;;4884160;29;20097;-71
2022/07/26 03:01:37;;;;;;;2.97;1.33;;;22.20;62.20;;;;;;4874974;29;20143;-69
2022/07/26 03:04:07;;;;;;;4.87;1.70;;;22.20;62.20;;;;;;4878056;29;20048;-70
2022/07/26 03:06:34;;;;;;;3.38;1.35;;;22.10;62.30;;;;;;4883923;29;21383;-72
2022/07/26 03:09:00;;;;;;;4.90;1.60;;;22.10;62.40;;;;;;4883155;29;20139;-71
2022/07/26 03:11:28;;;;;;;3.67;1.20;;;22.10;62.30;;;;;;4878319;29;20061;-70
2022/07/26 03:13:55;;;;;;;3.13;1.10;;;22.10;62.30;;;;;;4887115;29;20072;-70
2022/07/26 03:16:22;;;;;;;4.65;1.35;;;22.00;62.30;;;;;;4876772;29;20044;-69
2022/07/26 03:18:48;;;;;;;4.68;1.13;;;22.00;62.30;;;;;;4886370;29;20110;-71
2022/07/26 03:21:17;;;;;;;8.18;1.48;;;22.00;62.40;;;;;;4878524;29;20081;-71
2022/07/26 03:23:44;;;;;;;3.00;1.48;;;21.90;62.60;;;;;;4882135;29;20052;-70
2022/07/26 03:26:11;;;;;;;3.38;1.52;;;21.80;62.80;;;;;;4886900;29;20048;-72
2022/07/26 03:28:38;;;;;;;4.20;1.27;;;21.80;62.80;;;;;;4882320;29;20053;-70
2022/07/26 03:31:05;;;;;;;4.47;1.40;;;21.70;63.00;;;;;;4889994;29;20097;-70
2022/07/26 03:33:32;;;;;;;3.33;0.98;;;21.70;63.00;;;;;;4880080;29;20052;-71
2022/07/26 03:35:58;;;;;;;3.15;1.30;;;21.60;63.20;;;;;;4875858;29;20053;-71
2022/07/26 03:38:27;;;;;;;2.92;1.23;;;21.60;63.50;;;;;;4882399;29;20063;-72
2022/07/26 03:40:54;;;;;;;3.22;1.45;;;21.50;63.70;;;;;;4878317;29;20055;-70
2022/07/26 03:43:20;;;;;;;4.38;1.70;;;21.50;63.90;;;;;;4886810;29;20064;-71
2022/07/26 03:45:47;;;;;;;2.60;1.10;;;21.50;64.10;;;;;;4880910;29;20884;-69
2022/07/26 03:48:14;;;;;;;4.50;1.40;;;21.50;64.20;;;;;;4887100;29;20064;-70
2022/07/26 03:50:41;;;;;;;6.13;1.65;;;21.50;64.00;;;;;;4889809;29;20488;-71
2022/07/26 03:53:09;;;;;;;6.38;1.80;;;21.50;64.10;;;;;;4886864;29;20138;-70
2022/07/26 03:58:22;;;;;;;5.22;1.58;;;21.40;64.00;;;;;;4879671;29;20189;-71
2022/07/26 05:54:32;;;;;;;4.47;1.40;;;21.60;65.20;;;;;;4845758;29;20224;-62
2022/07/26 05:56:59;;;;;;;5.63;1.48;;;21.70;64.60;;;;;;4832450;29;20531;-63
2022/07/26 05:59:26;;;;;;;4.90;1.55;;;21.80;64.30;;;;;;4819771;29;20528;-62
2022/07/26 06:01:55;;;;;;;3.30;0.98;;;21.80;63.90;;;;;;4821528;29;20050;-62
2022/07/26 06:04:22;;;;;;;4.88;1.75;;;21.90;63.40;;;;;;4826429;29;22297;-62
2022/07/26 06:06:49;;;;;;;3.25;1.13;;;22.00;62.40;;;;;;4813828;29;20608;-63
2022/07/26 06:09:16;;;;;;;3.60;1.10;;;22.00;61.80;;;;;;4818179;29;20095;-62
2022/07/26 06:11:44;;;;;;;1.58;0.75;;;22.10;61.60;;;;;;4816315;29;20481;-63
2022/07/26 06:14:11;;;;;;;2.33;0.80;;;22.10;61.60;;;;;;4831017;29;20050;-63
2022/07/26 06:16:38;;;;;;;5.80;0.90;;;22.10;61.10;;;;;;4830520;29;20599;-63
2022/07/26 06:19:05;;;;;;;1.85;0.90;;;22.20;61.10;;;;;;4830993;29;20056;-62
2022/07/26 06:21:32;;;;;;;4.85;0.98;;;22.20;60.90;;;;;;4830738;29;20052;-63
2022/07/26 06:23:58;;;;;;;3.20;0.70;;;22.20;60.60;;;;;;4831794;29;20152;-61
2022/07/26 06:26:25;;;;;;;2.47;0.70;;;22.30;60.40;;;;;;4830573;29;20064;-62
2022/07/26 06:28:54;;;;;;;2.70;0.88;;;22.30;60.30;;;;;;4820454;29;20068;-62
2022/07/26 06:31:21;;;;;;;3.33;0.73;;;22.30;60.50;;;;;;4831232;29;20053;-61
2022/07/26 06:33:50;;;;;;;2.85;0.73;;;22.40;60.20;;;;;;4828014;29;20587;-63
2022/07/26 06:36:17;;;;;;;1.98;0.77;;;22.40;60.00;;;;;;4830570;29;20057;-65
2022/07/26 06:38:44;;;;;;;4.78;0.68;;;22.50;60.00;;;;;;4830705;29;20076;-64
2022/07/26 06:41:11;;;;;;;3.25;1.70;;;22.50;59.90;;;;;;4832073;29;20049;-64
2022/07/26 06:43:39;;;;;;;2.22;0.90;;;22.60;59.60;;;;;;4832141;29;20136;-63
2022/07/26 06:46:07;;;;;;;3.28;1.27;;;22.70;59.60;;;;;;4830476;29;20511;-62
2022/07/26 06:48:35;;;;;;;3.80;1.30;;;22.80;59.20;;;;;;4830961;29;20041;-62
2022/07/26 06:51:02;;;;;;;4.32;1.33;;;22.90;59.30;;;;;;4829001;29;20057;-63
2022/07/26 06:53:29;;;;;;;5.55;1.30;;;22.90;58.30;;;;;;4832619;29;20500;-62
2022/07/26 06:55:56;;;;;;;4.90;1.13;;;22.90;58.40;;;;;;4852968;29;20081;-62
2022/07/26 06:58:22;;;;;;;4.60;1.20;;;22.90;58.50;;;;;;4869721;29;20053;-62
2022/07/26 07:00:49;;;;;;;3.47;1.15;;;23.00;58.30;;;;;;4866636;29;20065;-62
2022/07/26 07:03:18;;;;;;;5.55;1.38;;;23.00;58.50;;;;;;4869084;29;20056;-62
2022/07/26 07:05:46;;;;;;;6.43;1.90;;;23.10;58.30;;;;;;4868343;29;20079;-63
2022/07/26 07:08:13;;;;;;;7.13;1.98;;;23.20;57.90;;;;;;4868730;29;20053;-63
2022/07/26 07:10:40;;;;;;;6.63;1.85;;;23.30;57.50;;;;;;4869875;29;20049;-62
2022/07/26 07:13:07;;;;;;;5.03;1.38;;;23.40;57.30;;;;;;4868089;29;20056;-62
2022/07/26 07:15:34;;;;;;;3.10;1.20;;;23.50;56.80;;;;;;4867322;29;20507;-62
2022/07/26 07:18:03;;;;;;;3.03;0.70;;;23.60;57.30;;;;;;4869591;29;20057;-63
2022/07/26 07:20:33;;;;;;;3.30;0.88;;;23.70;56.30;;;;;;4869083;29;20324;-63
2022/07/26 07:22:59;;;;;;;;;;;23.70;55.90;;;;;;4868725;29;20157;-62
2022/07/26 07:25:26;;;;;;;2.70;0.90;;;23.80;55.70;;;;;;4868963;29;20028;-63
2022/07/26 07:27:53;;;;;;;2.20;0.63;;;23.90;55.50;;;;;;4866968;29;20478;-62
2022/07/26 07:30:20;;;;;;;1.00;0.50;;;24.00;55.30;;;;;;4868945;29;20056;-61
2022/07/26 07:32:47;;;;;;;2.15;0.70;;;24.00;55.30;;;;;;4860902;29;20608;-63
2022/07/26 07:35:14;;;;;;;1.50;0.80;;;24.00;55.00;;;;;;4868973;29;20057;-62
2022/07/26 07:37:44;;;;;;;2.05;0.70;;;24.00;54.90;;;;;;4867821;29;20144;-63
2022/07/26 07:40:12;;;;;;;2.58;0.70;;;24.00;54.80;;;;;;4856363;29;20041;-63
2022/07/26 07:42:39;;;;;;;2.25;0.60;;;24.10;54.70;;;;;;4851161;29;20054;-62
2022/07/26 07:45:08;;;;;;;2.38;0.47;;;24.20;54.30;;;;;;4850263;29;20064;-63
2022/07/26 07:47:35;;;;;;;1.88;0.55;;;24.30;54.30;;;;;;4858957;29;20081;-62
2022/07/26 07:50:02;;;;;;;2.05;0.60;;;24.30;53.90;;;;;;4848596;29;20372;-62
2022/07/26 07:52:29;;;;;;;2.10;0.50;;;24.30;53.70;;;;;;4849276;29;20049;-63
2022/07/26 07:54:57;;;;;;;2.35;0.60;;;24.30;53.80;;;;;;4847644;29;20136;-62
2022/07/26 07:57:24;;;;;;;2.17;0.50;;;24.40;53.60;;;;;;4848351;29;20626;-64
2022/07/26 07:59:51;;;;;;;3.58;0.63;;;24.40;53.40;;;;;;4847543;29;20574;-62
2022/07/26 08:02:18;;;;;;;1.55;0.65;;;24.40;53.40;;;;;;4846091;29;20264;-64
2022/07/26 08:04:45;;;;;;;1.75;0.82;;;24.40;53.50;;;;;;4844970;29;20060;-64
2022/07/26 08:07:11;;;;;;;1.23;0.30;;;24.30;53.30;;;;;;4845104;29;20148;-64
2022/07/26 08:09:39;;;;;;;3.72;0.73;;;24.30;53.20;;;;;;4848672;29;20073;-62
2022/07/26 08:12:07;;;;;;;3.75;0.98;;;24.30;53.50;;;;;;4847622;29;20053;-63
2022/07/26 08:14:34;;;;;;;7.90;0.77;;;24.50;53.50;;;;;;4849330;29;20407;-62
2022/07/26 08:17:02;;;;;;;4.53;1.17;;;24.60;53.40;;;;;;4847617;29;20143;-63
2022/07/26 08:19:29;;;;;;;0.85;0.47;;;24.80;53.30;;;;;;4849160;29;20413;-64
2022/07/26 08:21:56;;;;;;;2.20;0.40;;;25.00;53.00;;;;;;4848335;29;20369;-64
2022/07/26 08:24:22;;;;;;;1.90;0.50;;;25.10;52.40;;;;;;4844564;29;20609;-63
2022/07/26 08:26:52;;;;;;;1.35;0.63;;;25.30;52.40;;;;;;4846358;29;20073;-62
2022/07/26 08:29:20;;;;;;;0.60;0.40;;;25.40;51.80;;;;;;4846734;29;20068;-63
2022/07/26 08:31:49;;;;;;;4.45;0.70;;;25.40;51.00;;;;;;4846652;29;20061;-62
2022/07/26 08:34:17;;;;;;;3.53;0.63;;;25.50;51.10;;;;;;4842685;29;20057;-62
2022/07/26 08:36:44;;;;;;;4.10;0.67;;;25.60;50.90;;;;;;4863617;29;20049;-63
2022/07/26 08:39:11;;;;;;;1.95;0.40;;;25.70;51.00;;;;;;4857512;29;20053;-62
2022/07/26 08:41:40;;;;;;;4.55;0.80;;;25.90;50.10;;;;;;4848762;29;20065;-63
2022/07/26 08:44:08;;;;;;;3.90;0.70;;;26.00;50.30;;;;;;4848892;29;20104;-63
2022/07/26 08:46:39;;;;;;;2.63;0.57;;;26.10;49.50;;;;;;4849881;29;20052;-61
2022/07/26 08:49:08;;;;;;;2.30;0.77;;;26.00;49.20;;;;;;4849223;29;20565;-63
2022/07/26 08:51:38;;;;;;;4.75;0.60;;;25.90;49.00;;;;;;4849307;29;20049;-64
2022/07/26 08:54:05;;;;;;;2.20;0.63;;;25.80;49.20;;;;;;4852718;29;20152;-62
2022/07/26 08:56:33;;;;;;;2.92;0.63;;;25.70;49.20;;;;;;4853139;29;20121;-64
2022/07/26 08:59:04;;;;;;;1.37;0.60;;;25.70;49.40;;;;;;4852629;29;20136;-62
2022/07/26 09:01:31;;;;;;;1.63;0.63;;;25.60;49.30;;;;;;4850496;29;20054;-62
2022/07/26 09:04:18;;;;;;;3.88;1.00;;;25.50;49.70;;;;;;4852158;29;20057;-62
2022/07/26 09:06:56;;;;;;;2.70;0.38;;;25.40;49.50;;;;;;4851340;29;20057;-62
2022/07/26 09:09:23;;;;;;;2.30;0.60;;;25.40;49.30;;;;;;4853162;29;20071;-61
2022/07/26 09:11:50;;;;;;;1.33;0.40;;;25.40;49.00;;;;;;4851968;29;20068;-63
2022/07/26 09:14:17;;;;;;;3.65;0.60;;;25.60;49.00;;;;;;4851685;29;20065;-62
2022/07/26 09:16:57;;;;;;;2.33;0.50;;;25.60;48.90;;;;;;4851331;29;20061;-60
2022/07/26 09:19:27;;;;;;;2.88;0.70;;;25.60;49.10;;;;;;4866257;29;20053;-61
2022/07/26 09:21:56;;;;;;;2.25;0.50;;;25.50;48.60;;;;;;4851903;29;20081;-62
2022/07/26 09:24:34;;;;;;;1.92;0.60;;;25.40;48.90;;;;;;4851655;29;20049;-64
2022/07/26 09:27:03;;;;;;;2.25;0.80;;;25.30;48.80;;;;;;4852163;29;20132;-62
2022/07/26 09:29:31;;;;;;;5.15;0.70;;;25.30;48.50;;;;;;4852960;29;20041;-62
2022/07/26 09:32:10;;;;;;;1.70;0.52;;;25.50;48.50;;;;;;4851418;29;20603;-64
2022/07/26 09:34:40;;;;;;;2.15;0.40;;;25.80;48.50;;;;;;4846901;29;20060;-62
2022/07/26 09:37:06;;;;;;;;;;;26.00;48.10;;;;;;4850371;29;20379;-64
2022/07/26 09:39:34;;;;;;;2.95;0.40;;;26.30;47.70;;;;;;4847544;29;19932;-64
2022/07/26 09:42:08;;;;;;;2.60;0.90;;;26.60;47.30;;;;;;4849527;29;20087;-62
2022/07/26 09:44:42;;;;;;;1.42;0.50;;;26.80;46.90;;;;;;4849859;29;20091;-63
2022/07/26 09:47:09;;;;;;;4.13;0.98;;;26.90;46.60;;;;;;4850472;29;20111;-62
2022/07/26 09:49:36;;;;;;;3.83;0.63;;;26.80;46.70;;;;;;4850405;29;20049;-62
2022/07/26 09:52:14;;;;;;;1.20;0.40;;;26.60;46.70;;;;;;4846642;29;20148;-63
2022/07/26 09:54:44;;;;;;;3.35;0.63;;;26.50;46.80;;;;;;4849849;29;20267;-62
2022/07/26 09:57:14;;;;;;;1.98;0.50;;;26.50;46.80;;;;;;4849554;29;20506;-63
2022/07/26 09:59:41;;;;;;;1.20;0.68;;;26.60;46.50;;;;;;4849103;29;20066;-62
2022/07/26 10:02:09;;;;;;;1.50;0.50;;;26.90;46.30;;;;;;4847019;29;22321;-64
2022/07/26 10:04:35;;;;;;;1.77;0.65;;;27.10;45.90;;;;;;4850384;29;20053;-62
2022/07/26 10:07:04;;;;;;;1.77;0.40;;;27.10;45.70;;;;;;4848406;29;20430;-62
2022/07/26 10:09:39;;;;;;;4.38;0.60;;;26.90;45.00;;;;;;4847733;29;20057;-63
2022/07/26 10:12:08;;;;;;;3.20;0.68;;;26.80;44.90;;;;;;4852357;29;20132;-61
2022/07/26 10:14:37;;;;;;;1.98;0.68;;;26.70;45.10;;;;;;4850274;29;20053;-63
2022/07/26 10:17:46;;;;;;;1.88;0.70;;;26.80;45.30;;;;;;4851473;29;20510;-63
2022/07/26 10:20:43;;;;;;;1.42;0.50;;;27.10;45.10;;;;;;4856216;29;20057;-63
2022/07/26 10:23:36;;;;;;;2.40;0.50;;;27.30;45.10;;;;;;4851011;29;20072;-62
2022/07/26 10:26:05;;;;;;;2.67;0.70;;;27.40;44.70;;;;;;4856699;29;20061;-63
2022/07/26 10:28:35;;;;;;;4.88;0.77;;;27.50;44.00;;;;;;4853681;29;20062;-62
2022/07/26 10:31:30;;;;;;;0.88;0.50;;;27.60;44.10;;;;;;4851209;29;20084;-64
2022/07/26 10:34:01;;;;;;;1.67;0.38;;;27.80;44.10;;;;;;4841603;29;20050;-62
2022/07/26 10:36:34;;;;;;;1.45;0.60;;;27.80;43.60;;;;;;4851835;29;20106;-63
2022/07/26 10:39:09;;;;;;;1.05;0.52;;;27.90;43.40;;;;;;4849664;29;20068;-62
2022/07/26 10:41:41;;;;;;;1.35;0.60;;;28.10;43.30;;;;;;4850964;29;20167;-62
2022/07/26 10:44:17;;;;;;;1.98;0.60;;;28.00;42.90;;;;;;4851114;29;20060;-63
2022/07/26 10:47:10;;;;;;;1.98;0.50;;;27.80;42.50;;;;;;4850952;29;20041;-63
2022/07/26 10:49:38;;;;;;;1.00;0.60;;;27.70;42.90;;;;;;4851834;29;20053;-63
2022/07/26 10:52:16;;;;;;;1.17;0.70;;;27.60;42.40;;;;;;4851101;29;20955;-62
2022/07/26 10:55:15;;;;;;;1.13;0.50;;;27.50;42.60;;;;;;4851159;29;20058;-64
2022/07/26 10:57:44;;;;;;;1.70;0.75;;;27.90;42.40;;;;;;4850762;29;20086;-64
2022/07/26 11:00:15;;;;;;;3.85;0.80;;;28.00;42.30;;;;;;4859245;29;20059;-62
2022/07/26 11:02:43;;;;;;;2.53;0.60;;;27.90;42.00;;;;;;4852795;29;20145;-62
2022/07/26 11:05:15;;;;;;;3.83;0.93;;;27.80;41.90;;;;;;4858720;29;20058;-62
2022/07/26 11:07:54;;;;;;;0.93;0.60;;;27.70;42.10;;;;;;4847518;29;20080;-62
2022/07/26 11:10:31;;;;;;;4.32;0.63;;;27.60;42.30;;;;;;4855492;29;20053;-62
2022/07/26 11:13:00;;;;;;;1.77;0.75;;;27.40;42.20;;;;;;4858455;29;22629;-61
2022/07/26 11:15:29;;;;;;;1.13;0.50;;;27.20;42.50;;;;;;4866160;29;20474;-64
2022/07/26 11:18:10;;;;;;;3.25;0.80;;;27.10;43.00;;;;;;4867432;29;20137;-63
2022/07/26 11:20:38;;;;;;;1.67;0.63;;;26.90;43.40;;;;;;4867720;29;20079;-61
2022/07/26 11:23:18;;;;;;;4.15;0.80;;;26.80;43.60;;;;;;4867325;29;20068;-63
2022/07/26 11:26:10;;;;;;;0.40;0.40;;;26.80;43.50;;;;;;4868216;29;20049;-63
2022/07/26 11:28:48;;;;;;;1.38;0.60;;;26.80;43.80;;;;;;4868082;29;20049;-63
2022/07/26 11:31:16;;;;;;;2.87;0.60;;;26.90;43.90;;;;;;4867835;29;20064;-61
2022/07/26 11:33:47;;;;;;;1.90;0.70;;;27.10;43.60;;;;;;4859189;29;20077;-66
2022/07/26 11:36:15;;;;;;;2.05;0.43;;;27.30;43.90;;;;;;4849040;29;20056;-61
2022/07/26 11:38:50;;;;;;;2.03;0.88;;;27.40;43.60;;;;;;4848966;29;20151;-64
2022/07/26 11:41:23;;;;;;;3.20;1.15;;;27.30;43.60;;;;;;4868395;29;20057;-61
2022/07/26 11:43:51;;;;;;;3.70;1.20;;;27.30;43.80;;;;;;4867755;29;20059;-62
2022/07/26 11:46:18;;;;;;;3.67;1.25;;;27.20;44.00;;;;;;4868944;29;20049;-64
2022/07/26 11:48:47;;;;;;;2.72;0.90;;;27.20;44.10;;;;;;4866316;29;22567;-62
2022/07/26 11:51:15;;;;;;;3.33;0.70;;;27.20;43.70;;;;;;4864820;29;20045;-62
2022/07/26 11:53:42;;;;;;;2.13;1.30;;;27.20;43.80;;;;;;4868754;29;20053;-62
2022/07/26 11:56:11;;;;;;;5.05;1.98;;;27.30;43.60;;;;;;4857482;29;20155;-61
2022/07/26 11:58:41;;;;;;;3.60;0.90;;;27.20;43.70;;;;;;4849924;29;20109;-62
2022/07/26 12:01:09;;;;;;;2.83;0.90;;;27.30;43.60;;;;;;4855065;29;20080;-63
2022/07/26 12:03:37;;;;;;;2.80;0.88;;;27.60;43.60;;;;;;4847635;29;20094;-62
2022/07/26 12:06:06;;;;;;;3.33;1.10;;;27.80;43.60;;;;;;4849241;29;20492;-63
2022/07/26 12:08:41;;;;;;;2.45;0.82;;;28.00;43.40;;;;;;4850049;29;20080;-62
2022/07/26 12:11:08;;;;;;;3.15;0.82;;;28.00;43.20;;;;;;4849591;29;20164;-61
2022/07/26 12:14:00;;;;;;;4.13;1.00;;;28.00;43.30;;;;;;4850136;29;20064;-62
2022/07/26 12:16:51;;;;;;;2.70;1.00;;;27.90;43.20;;;;;;4847066;29;20114;-63
2022/07/26 12:19:29;;;;;;;2.88;0.93;;;27.60;42.80;;;;;;4868496;29;20145;-63
2022/07/26 12:21:58;;;;;;;2.78;1.17;;;27.30;42.90;;;;;;4850108;29;20049;-62
2022/07/26 12:24:43;;;;;;;2.55;0.90;;;27.10;43.20;;;;;;4848664;29;20064;-63
2022/07/26 12:27:13;;;;;;;6.28;1.00;;;27.00;43.70;;;;;;4849009;29;20358;-62
2022/07/26 12:29:43;;;;;;;1.73;1.08;;;26.80;44.30;;;;;;4854614;29;20132;-61
2022/07/26 12:32:13;;;;;;;2.15;0.85;;;26.60;44.90;;;;;;4860574;29;20409;-61
2022/07/26 12:34:42;;;;;;;3.35;1.05;;;26.50;45.20;;;;;;4849970;29;20065;-61
2022/07/26 12:37:14;;;;;;;2.45;1.13;;;26.50;45.60;;;;;;4853702;29;20074;-62
2022/07/26 12:39:43;;;;;;;2.10;1.00;;;26.40;45.50;;;;;;4853598;29;20061;-62
2022/07/26 12:42:26;;;;;;;2.83;1.30;;;26.30;45.60;;;;;;4853038;29;20129;-61
2022/07/26 12:44:55;;;;;;;5.70;1.23;;;26.30;45.60;;;;;;4853104;29;20136;-62
2022/07/26 12:47:22;;;;;;;2.40;1.20;;;26.40;45.60;;;;;;4852562;29;20060;-62
2022/07/26 12:49:49;;;;;;;3.17;1.30;;;26.50;45.60;;;;;;4852399;29;20476;-63
2022/07/26 12:52:18;;;;;;;1.80;0.93;;;26.70;45.30;;;;;;4849023;29;20076;-63
2022/07/26 12:54:46;;;;;;;2.03;1.33;;;27.00;45.10;;;;;;4851536;29;20443;-62
2022/07/26 12:57:13;;;;;;;5.53;1.20;;;27.10;45.20;;;;;;4847498;29;20076;-63
2022/07/26 12:59:41;;;;;;;3.88;1.40;;;27.10;45.00;;;;;;4869355;29;20470;-62
2022/07/26 13:02:09;;;;;;;2.55;1.20;;;27.20;45.00;;;;;;4865145;29;20518;-63
2022/07/26 13:04:37;;;;;;;4.10;1.30;;;27.30;44.80;;;;;;4870103;29;20059;-65
2022/07/26 13:07:04;;;;;;;1.92;1.00;;;27.40;44.90;;;;;;4869124;29;20132;-63
2022/07/26 13:09:32;;;;;;;3.33;1.15;;;27.50;44.90;;;;;;4871145;29;20922;-62
2022/07/26 13:12:00;;;;;;;2.97;1.40;;;27.60;44.90;;;;;;4870074;29;20130;-64
2022/07/26 13:14:28;;;;;;;3.78;1.75;;;27.60;44.80;;;;;;4870818;29;20041;-62
2022/07/26 13:16:55;;;;;;;5.97;1.75;;;27.60;44.80;;;;;;4869974;29;20160;-64
2022/07/26 13:19:23;;;;;;;5.05;2.10;;;27.50;45.00;;;;;;4870556;29;20053;-64
2022/07/26 13:21:50;;;;;;;4.82;1.83;;;27.40;44.60;;;;;;4869294;29;20632;-62
2022/07/26 13:24:18;;;;;;;4.85;1.98;;;27.30;44.60;;;;;;4870273;29;20053;-62
2022/07/26 13:26:44;;;;;;;4.60;2.15;;;27.30;45.20;;;;;;4865596;29;20407;-61
2022/07/26 13:29:11;;;;;;;3.95;1.63;;;27.20;45.00;;;;;;4870806;29;20056;-63
2022/07/26 13:31:38;;;;;;;5.40;2.08;;;27.20;45.10;;;;;;4871062;29;20056;-63
2022/07/26 13:34:05;;;;;;;4.10;1.95;;;27.20;45.40;;;;;;4868801;29;20084;-62
2022/07/26 13:36:34;;;;;;;6.15;2.35;;;27.30;45.40;;;;;;4867373;29;20786;-63
2022/07/26 13:39:01;;;;;;;4.97;2.40;;;27.30;45.10;;;;;;4869722;29;20049;-63
2022/07/26 13:41:29;;;;;;;5.13;2.10;;;27.40;45.10;;;;;;4866292;29;20469;-63
2022/07/26 13:43:56;;;;;;;3.35;1.50;;;27.50;44.70;;;;;;4870346;29;20545;-62
2022/07/26 13:46:25;;;;;;;2.78;1.48;;;27.60;44.70;;;;;;4871110;29;20140;-61
2022/07/26 13:48:52;;;;;;;2.15;1.15;;;27.70;44.50;;;;;;4870829;29;20061;-62
2022/07/26 13:51:19;;;;;;;2.28;0.95;;;27.70;44.40;;;;;;4869981;29;20049;-63
2022/07/26 13:53:47;;;;;;;3.00;1.10;;;27.70;42.40;;;;;;4870285;29;20061;-62
2022/07/26 13:56:14;;;;;;;1.73;0.93;;;27.70;41.30;;;;;;4868884;29;20060;-62
2022/07/26 13:58:41;;;;;;;1.55;0.70;;;27.60;41.50;;;;;;4869684;29;20470;-61
2022/07/26 14:01:08;;;;;;;1.75;0.90;;;27.60;41.70;;;;;;4868475;29;20060;-63
2022/07/26 14:03:35;;;;;;;2.47;0.68;;;27.60;41.90;;;;;;4871148;29;20624;-62
2022/07/26 14:06:02;;;;;;;3.05;1.20;;;27.70;42.20;;;;;;4870353;29;20057;-63
2022/07/26 14:08:29;;;;;;;2.08;0.90;;;27.80;42.50;;;;;;4869914;29;20045;-63
2022/07/26 14:10:57;;;;;;;2.55;1.05;;;27.80;42.20;;;;;;4869725;29;20049;-61
2022/07/26 14:13:24;;;;;;;2.37;1.30;;;27.70;42.40;;;;;;4868838;29;20061;-62
2022/07/26 14:15:51;;;;;;;1.92;0.85;;;27.70;42.50;;;;;;4869178;29;20071;-61
2022/07/26 14:18:20;;;;;;;4.25;1.25;;;27.60;42.60;;;;;;4870321;29;20055;-61
2022/07/26 14:20:47;;;;;;;;;;;27.60;42.70;;;;;;4870938;29;20056;-63
2022/07/26 14:23:14;;;;;;;2.47;1.10;;;27.60;42.60;;;;;;4869658;29;20394;-62
2022/07/26 14:25:41;;;;;;;2.30;1.40;;;27.70;42.60;;;;;;4869514;29;20145;-62
2022/07/26 14:28:09;;;;;;;2.38;1.15;;;27.60;42.70;;;;;;4868249;29;20107;-62
2022/07/26 14:30:36;;;;;;;6.80;1.50;;;27.60;42.10;;;;;;4866843;29;20057;-61
2022/07/26 14:33:03;;;;;;;4.05;1.55;;;27.60;42.20;;;;;;4868636;29;20057;-63
2022/07/26 14:35:30;;;;;;;2.25;1.23;;;27.60;42.40;;;;;;4861213;29;20060;-61
2022/07/26 14:37:57;;;;;;;2.17;1.50;;;27.60;42.30;;;;;;4868107;29;20421;-63
2022/07/26 14:40:24;;;;;;;4.38;1.50;;;27.60;42.60;;;;;;4868340;29;20049;-62
2022/07/26 14:42:51;;;;;;;3.40;1.38;;;27.60;42.60;;;;;;4865966;29;20052;-63
2022/07/26 14:45:20;;;;;;;4.75;1.80;;;27.60;42.80;;;;;;4869094;29;20053;-63
2022/07/26 14:47:47;;;;;;;4.60;1.88;;;27.70;43.00;;;;;;4867042;29;20455;-62
2022/07/26 14:50:15;;;;;;;5.45;2.35;;;27.70;43.10;;;;;;4867828;29;20060;-61
2022/07/26 14:52:43;;;;;;;3.80;1.70;;;27.80;43.10;;;;;;4868327;29;20057;-63
2022/07/26 14:55:11;;;;;;;3.13;1.67;;;27.80;41.90;;;;;;4860630;29;20056;-64